sensor_id;sensor_type;location;lat;lon;timestamp;temperature;humidity
20483;DHT22;10400;53.198;6.592;2023-04-03T00:00:29;3.80;1.00
20483;DHT22;10400;53.198;6.592;2023-04-03T00:02:55;3.80;1.00
20483;DHT22;10400;53.198;6.592;2023-04-03T00:05:21;3.80;1.00
20483;DHT22;10400;53.198;6.592;2023-04-03T00:07:47;3.80;1.00
20483;DHT22;10400;53.198;6.592;2023-04-03T00:10:12;3.80;1.00
20483;DHT22;10400;53.198;6.592;2023-04-03T00:12:39;3.80;1.00
20483;DHT22;10400;53.198;6.592;2023-04-03T00:15:05;3.70;99.90
20483;DHT22;10400;53.198;6.592;2023-04-03T00:17:31;3.70;99.90
20483;DHT22;10400;53.198;6.592;2023-04-03T00:19:56;3.70;99.90
20483;DHT22;10400;53.198;6.592;2023-04-03T00:22:22;3.60;99.90
20483;DHT22;10400;53.198;6.592;2023-04-03T00:24:48;3.60;99.90
20483;DHT22;10400;53.198;6.592;2023-04-03T00:27:13;3.60;99.90
20483;DHT22;10400;53.198;6.592;2023-04-03T00:29:41;3.60;99.90
20483;DHT22;10400;53.198;6.592;2023-04-03T00:32:06;3.50;99.90
20483;DHT22;10400;53.198;6.592;2023-04-03T00:34:32;3.50;99.90
20483;DHT22;10400;53.198;6.592;2023-04-03T00:36:57;3.50;99.90
20483;DHT22;10400;53.198;6.592;2023-04-03T00:39:23;3.50;1.00
20483;DHT22;10400;53.198;6.592;2023-04-03T00:41:49;3.50;1.00
20483;DHT22;10400;53.198;6.592;2023-04-03T00:45:19;3.50;1.00
20483;DHT22;10400;53.198;6.592;2023-04-03T00:47:11;3.40;1.00
20483;DHT22;10400;53.198;6.592;2023-04-03T00:49:38;3.40;1.00
20483;DHT22;10400;53.198;6.592;2023-04-03T00:52:07;3.40;1.00
20483;DHT22;10400;53.198;6.592;2023-04-03T00:54:36;3.40;1.00
20483;DHT22;10400;53.198;6.592;2023-04-03T00:57:02;3.40;1.00
20483;DHT22;10400;53.198;6.592;2023-04-03T00:59:31;3.40;1.00
20483;DHT22;10400;53.198;6.592;2023-04-03T01:01:58;3.40;1.00
20483;DHT22;10400;53.198;6.592;2023-04-03T01:04:28;3.30;1.00
20483;DHT22;10400;53.198;6.592;2023-04-03T01:06:56;3.30;1.00
20483;DHT22;10400;53.198;6.592;2023-04-03T01:09:23;3.30;1.00
20483;DHT22;10400;53.198;6.592;2023-04-03T01:11:49;3.20;37.20
20483;DHT22;10400;53.198;6.592;2023-04-03T01:14:15;3.20;99.90
20483;DHT22;10400;53.198;6.592;2023-04-03T01:16:40;3.20;99.90
20483;DHT22;10400;53.198;6.592;2023-04-03T01:19:08;3.20;99.90
20483;DHT22;10400;53.198;6.592;2023-04-03T01:24:54;3.10;99.90
20483;DHT22;10400;53.198;6.592;2023-04-03T01:27:19;3.10;99.90
20483;DHT22;10400;53.198;6.592;2023-04-03T01:29:45;3.10;99.90
20483;DHT22;10400;53.198;6.592;2023-04-03T01:32:11;3.10;99.90
20483;DHT22;10400;53.198;6.592;2023-04-03T01:34:37;3.10;99.90
20483;DHT22;10400;53.198;6.592;2023-04-03T01:37:02;3.00;99.90
20483;DHT22;10400;53.198;6.592;2023-04-03T01:39:28;3.00;1.00
20483;DHT22;10400;53.198;6.592;2023-04-03T01:41:54;3.00;1.00
20483;DHT22;10400;53.198;6.592;2023-04-03T01:44:20;3.00;1.00
20483;DHT22;10400;53.198;6.592;2023-04-03T01:46:45;3.00;1.00
20483;DHT22;10400;53.198;6.592;2023-04-03T01:49:11;3.00;1.00
20483;DHT22;10400;53.198;6.592;2023-04-03T01:51:37;2.90;1.00
20483;DHT22;10400;53.198;6.592;2023-04-03T01:54:03;2.90;1.00
20483;DHT22;10400;53.198;6.592;2023-04-03T01:56:28;2.90;1.00
20483;DHT22;10400;53.198;6.592;2023-04-03T01:58:54;2.80;1.00
20483;DHT22;10400;53.198;6.592;2023-04-03T02:01:19;2.90;1.00
20483;DHT22;10400;53.198;6.592;2023-04-03T02:03:46;2.90;1.00
20483;DHT22;10400;53.198;6.592;2023-04-03T02:06:12;2.80;1.00
20483;DHT22;10400;53.198;6.592;2023-04-03T02:08:37;2.80;1.00
20483;DHT22;10400;53.198;6.592;2023-04-03T02:11:03;2.70;1.00
20483;DHT22;10400;53.198;6.592;2023-04-03T02:13:28;2.70;1.00
20483;DHT22;10400;53.198;6.592;2023-04-03T02:15:54;2.60;1.00
20483;DHT22;10400;53.198;6.592;2023-04-03T02:18:20;2.70;1.00
20483;DHT22;10400;53.198;6.592;2023-04-03T02:20:46;2.60;1.00
20483;DHT22;10400;53.198;6.592;2023-04-03T02:23:12;2.60;1.00
20483;DHT22;10400;53.198;6.592;2023-04-03T02:25:38;2.50;1.00
20483;DHT22;10400;53.198;6.592;2023-04-03T02:28:04;2.60;1.00
20483;DHT22;10400;53.198;6.592;2023-04-03T02:30:29;2.60;1.00
20483;DHT22;10400;53.198;6.592;2023-04-03T02:32:55;2.60;1.00
20483;DHT22;10400;53.198;6.592;2023-04-03T02:35:21;2.60;1.00
20483;DHT22;10400;53.198;6.592;2023-04-03T02:37:47;2.50;1.00
20483;DHT22;10400;53.198;6.592;2023-04-03T02:40:12;2.50;1.00
20483;DHT22;10400;53.198;6.592;2023-04-03T02:42:38;2.50;1.00
20483;DHT22;10400;53.198;6.592;2023-04-03T02:45:04;2.40;1.00
20483;DHT22;10400;53.198;6.592;2023-04-03T02:47:30;2.40;1.00
20483;DHT22;10400;53.198;6.592;2023-04-03T02:49:56;2.30;1.00
20483;DHT22;10400;53.198;6.592;2023-04-03T02:52:22;2.30;1.00
20483;DHT22;10400;53.198;6.592;2023-04-03T02:54:47;2.30;1.00
20483;DHT22;10400;53.198;6.592;2023-04-03T02:57:13;2.30;1.00
20483;DHT22;10400;53.198;6.592;2023-04-03T02:59:39;2.20;1.00
20483;DHT22;10400;53.198;6.592;2023-04-03T03:02:07;2.20;1.00
20483;DHT22;10400;53.198;6.592;2023-04-03T03:04:33;2.10;1.00
20483;DHT22;10400;53.198;6.592;2023-04-03T03:06:58;2.10;1.00
20483;DHT22;10400;53.198;6.592;2023-04-03T03:09:24;2.00;1.00
20483;DHT22;10400;53.198;6.592;2023-04-03T03:11:51;2.00;1.00
20483;DHT22;10400;53.198;6.592;2023-04-03T03:14:16;1.90;1.00
20483;DHT22;10400;53.198;6.592;2023-04-03T03:16:42;1.90;1.00
20483;DHT22;10400;53.198;6.592;2023-04-03T03:19:08;1.90;1.00
20483;DHT22;10400;53.198;6.592;2023-04-03T03:21:33;1.90;1.00
20483;DHT22;10400;53.198;6.592;2023-04-03T03:23:59;1.90;1.00
20483;DHT22;10400;53.198;6.592;2023-04-03T03:26:25;1.80;1.00
20483;DHT22;10400;53.198;6.592;2023-04-03T03:28:51;1.80;1.00
20483;DHT22;10400;53.198;6.592;2023-04-03T03:31:16;1.80;1.00
20483;DHT22;10400;53.198;6.592;2023-04-03T03:33:42;1.70;1.00
20483;DHT22;10400;53.198;6.592;2023-04-03T03:36:07;1.70;1.00
20483;DHT22;10400;53.198;6.592;2023-04-03T03:38:33;1.70;1.00
20483;DHT22;10400;53.198;6.592;2023-04-03T03:40:59;1.70;1.00
20483;DHT22;10400;53.198;6.592;2023-04-03T03:43:24;1.80;1.00
20483;DHT22;10400;53.198;6.592;2023-04-03T03:45:53;1.60;1.00
20483;DHT22;10400;53.198;6.592;2023-04-03T03:48:20;1.60;1.00
20483;DHT22;10400;53.198;6.592;2023-04-03T03:50:46;1.50;1.00
20483;DHT22;10400;53.198;6.592;2023-04-03T03:53:12;1.60;1.00
20483;DHT22;10400;53.198;6.592;2023-04-03T03:55:38;1.60;1.00
20483;DHT22;10400;53.198;6.592;2023-04-03T03:58:03;1.60;1.00
20483;DHT22;10400;53.198;6.592;2023-04-03T04:00:29;1.60;1.00
20483;DHT22;10400;53.198;6.592;2023-04-03T04:02:55;1.50;1.00
20483;DHT22;10400;53.198;6.592;2023-04-03T04:05:21;1.50;1.00
20483;DHT22;10400;53.198;6.592;2023-04-03T04:07:47;1.50;1.00
20483;DHT22;10400;53.198;6.592;2023-04-03T04:10:12;1.50;1.00
20483;DHT22;10400;53.198;6.592;2023-04-03T04:12:39;1.40;1.00
20483;DHT22;10400;53.198;6.592;2023-04-03T04:15:05;1.40;1.00
20483;DHT22;10400;53.198;6.592;2023-04-03T04:17:31;1.50;7.70
20483;DHT22;10400;53.198;6.592;2023-04-03T04:19:56;1.40;3.20
20483;DHT22;10400;53.198;6.592;2023-04-03T04:22:22;1.40;5.10
20483;DHT22;10400;53.198;6.592;2023-04-03T04:24:48;1.40;7.10
20483;DHT22;10400;53.198;6.592;2023-04-03T04:27:13;1.40;9.20
20483;DHT22;10400;53.198;6.592;2023-04-03T04:29:41;1.40;12.30
20483;DHT22;10400;53.198;6.592;2023-04-03T04:32:06;1.40;16.10
20483;DHT22;10400;53.198;6.592;2023-04-03T04:34:32;1.40;16.50
20483;DHT22;10400;53.198;6.592;2023-04-03T04:36:57;1.50;15.00
20483;DHT22;10400;53.198;6.592;2023-04-03T04:39:23;1.40;15.00
20483;DHT22;10400;53.198;6.592;2023-04-03T04:41:49;1.40;14.50
20483;DHT22;10400;53.198;6.592;2023-04-03T04:44:15;1.40;16.70
20483;DHT22;10400;53.198;6.592;2023-04-03T04:46:40;1.40;16.30
20483;DHT22;10400;53.198;6.592;2023-04-03T04:49:06;1.40;17.50
20483;DHT22;10400;53.198;6.592;2023-04-03T04:51:31;1.40;22.60
20483;DHT22;10400;53.198;6.592;2023-04-03T04:53:57;1.30;23.30
20483;DHT22;10400;53.198;6.592;2023-04-03T04:56:23;1.40;23.30
20483;DHT22;10400;53.198;6.592;2023-04-03T04:58:49;1.30;26.20
20483;DHT22;10400;53.198;6.592;2023-04-03T05:01:14;1.30;27.90
20483;DHT22;10400;53.198;6.592;2023-04-03T05:03:40;1.30;33.30
20483;DHT22;10400;53.198;6.592;2023-04-03T05:06:06;1.30;31.30
20483;DHT22;10400;53.198;6.592;2023-04-03T05:08:32;1.30;37.30
20483;DHT22;10400;53.198;6.592;2023-04-03T05:10:57;1.30;38.50
20483;DHT22;10400;53.198;6.592;2023-04-03T05:13:23;1.20;38.70
20483;DHT22;10400;53.198;6.592;2023-04-03T05:15:49;1.30;40.30
20483;DHT22;10400;53.198;6.592;2023-04-03T05:18:15;1.20;35.90
20483;DHT22;10400;53.198;6.592;2023-04-03T05:20:40;1.20;41.50
20483;DHT22;10400;53.198;6.592;2023-04-03T05:23:06;1.20;41.20
20483;DHT22;10400;53.198;6.592;2023-04-03T05:25:32;1.20;43.20
20483;DHT22;10400;53.198;6.592;2023-04-03T05:27:58;1.20;48.10
20483;DHT22;10400;53.198;6.592;2023-04-03T05:30:23;1.10;47.20
20483;DHT22;10400;53.198;6.592;2023-04-03T05:32:49;1.10;50.70
20483;DHT22;10400;53.198;6.592;2023-04-03T05:35:15;1.30;59.60
20483;DHT22;10400;53.198;6.592;2023-04-03T05:37:41;1.30;52.60
20483;DHT22;10400;53.198;6.592;2023-04-03T05:40:07;1.40;48.40
20483;DHT22;10400;53.198;6.592;2023-04-03T05:42:33;1.30;42.80
20483;DHT22;10400;53.198;6.592;2023-04-03T05:44:58;1.30;43.50
20483;DHT22;10400;53.198;6.592;2023-04-03T05:47:24;1.40;47.60
20483;DHT22;10400;53.198;6.592;2023-04-03T05:49:50;1.50;46.60
20483;DHT22;10400;53.198;6.592;2023-04-03T05:52:26;1.50;37.90
20483;DHT22;10400;53.198;6.592;2023-04-03T05:54:52;1.60;35.30
20483;DHT22;10400;53.198;6.592;2023-04-03T05:57:18;1.60;33.00
20483;DHT22;10400;53.198;6.592;2023-04-03T05:59:45;1.70;24.40
20483;DHT22;10400;53.198;6.592;2023-04-03T06:02:20;1.70;17.30
20483;DHT22;10400;53.198;6.592;2023-04-03T06:04:46;1.70;14.10
20483;DHT22;10400;53.198;6.592;2023-04-03T06:07:15;1.70;16.10
20483;DHT22;10400;53.198;6.592;2023-04-03T06:09:42;1.80;15.60
20483;DHT22;10400;53.198;6.592;2023-04-03T06:12:08;1.80;12.70
20483;DHT22;10400;53.198;6.592;2023-04-03T06:14:34;1.90;10.70
20483;DHT22;10400;53.198;6.592;2023-04-03T06:17:00;1.90;8.90
20483;DHT22;10400;53.198;6.592;2023-04-03T06:19:27;1.90;5.80
20483;DHT22;10400;53.198;6.592;2023-04-03T06:21:52;2.00;3.60
20483;DHT22;10400;53.198;6.592;2023-04-03T06:24:19;2.00;1.00
20483;DHT22;10400;53.198;6.592;2023-04-03T06:26:47;2.10;1.00
20483;DHT22;10400;53.198;6.592;2023-04-03T06:29:13;2.20;1.00
20483;DHT22;10400;53.198;6.592;2023-04-03T06:31:38;2.20;1.00
20483;DHT22;10400;53.198;6.592;2023-04-03T06:34:05;2.30;1.00
20483;DHT22;10400;53.198;6.592;2023-04-03T06:36:32;2.30;1.00
20483;DHT22;10400;53.198;6.592;2023-04-03T06:38:58;2.40;1.00
20483;DHT22;10400;53.198;6.592;2023-04-03T06:41:24;2.40;1.00
20483;DHT22;10400;53.198;6.592;2023-04-03T06:43:51;2.50;1.00
20483;DHT22;10400;53.198;6.592;2023-04-03T06:46:19;2.60;1.00
20483;DHT22;10400;53.198;6.592;2023-04-03T06:48:45;2.70;1.00
20483;DHT22;10400;53.198;6.592;2023-04-03T06:51:28;2.70;1.00
20483;DHT22;10400;53.198;6.592;2023-04-03T06:53:57;2.70;1.00
20483;DHT22;10400;53.198;6.592;2023-04-03T06:56:23;2.80;1.00
20483;DHT22;10400;53.198;6.592;2023-04-03T06:58:49;2.80;1.00
20483;DHT22;10400;53.198;6.592;2023-04-03T07:01:16;2.90;1.00
20483;DHT22;10400;53.198;6.592;2023-04-03T07:03:44;3.00;1.00
20483;DHT22;10400;53.198;6.592;2023-04-03T07:06:12;3.10;1.00
20483;DHT22;10400;53.198;6.592;2023-04-03T07:08:38;3.10;1.00
20483;DHT22;10400;53.198;6.592;2023-04-03T07:11:05;3.20;1.00
20483;DHT22;10400;53.198;6.592;2023-04-03T07:13:30;3.30;1.00
20483;DHT22;10400;53.198;6.592;2023-04-03T07:15:56;3.40;1.00
20483;DHT22;10400;53.198;6.592;2023-04-03T07:18:23;3.50;1.00
20483;DHT22;10400;53.198;6.592;2023-04-03T07:20:48;3.50;1.00
20483;DHT22;10400;53.198;6.592;2023-04-03T07:23:14;3.60;1.00
20483;DHT22;10400;53.198;6.592;2023-04-03T07:25:44;3.60;1.00
20483;DHT22;10400;53.198;6.592;2023-04-03T07:28:11;3.60;1.00
20483;DHT22;10400;53.198;6.592;2023-04-03T07:30:46;3.70;1.00
20483;DHT22;10400;53.198;6.592;2023-04-03T07:33:13;3.70;1.00
20483;DHT22;10400;53.198;6.592;2023-04-03T07:35:39;3.70;1.00
20483;DHT22;10400;53.198;6.592;2023-04-03T07:38:06;3.80;1.00
20483;DHT22;10400;53.198;6.592;2023-04-03T07:40:32;3.80;1.00
20483;DHT22;10400;53.198;6.592;2023-04-03T07:42:57;3.90;1.00
20483;DHT22;10400;53.198;6.592;2023-04-03T07:45:24;4.00;1.00
20483;DHT22;10400;53.198;6.592;2023-04-03T07:47:50;4.10;1.00
20483;DHT22;10400;53.198;6.592;2023-04-03T07:50:16;4.20;1.00
20483;DHT22;10400;53.198;6.592;2023-04-03T07:52:42;4.20;1.00
20483;DHT22;10400;53.198;6.592;2023-04-03T07:55:08;4.30;1.00
20483;DHT22;10400;53.198;6.592;2023-04-03T07:57:33;4.40;1.00
20483;DHT22;10400;53.198;6.592;2023-04-03T07:59:59;4.50;1.00
20483;DHT22;10400;53.198;6.592;2023-04-03T08:02:25;4.50;99.90
20483;DHT22;10400;53.198;6.592;2023-04-03T08:04:50;4.60;99.90
20483;DHT22;10400;53.198;6.592;2023-04-03T08:07:16;4.70;99.90
20483;DHT22;10400;53.198;6.592;2023-04-03T08:09:42;4.70;99.90
20483;DHT22;10400;53.198;6.592;2023-04-03T08:12:07;4.80;99.90
20483;DHT22;10400;53.198;6.592;2023-04-03T08:14:33;4.90;99.90
20483;DHT22;10400;53.198;6.592;2023-04-03T08:17:01;5.10;99.90
20483;DHT22;10400;53.198;6.592;2023-04-03T08:19:29;5.20;99.90
20483;DHT22;10400;53.198;6.592;2023-04-03T08:21:56;5.20;73.40
20483;DHT22;10400;53.198;6.592;2023-04-03T08:24:24;5.30;1.00
20483;DHT22;10400;53.198;6.592;2023-04-03T08:26:50;5.50;1.00
20483;DHT22;10400;53.198;6.592;2023-04-03T08:29:16;5.60;1.00
20483;DHT22;10400;53.198;6.592;2023-04-03T08:31:41;5.60;1.00
20483;DHT22;10400;53.198;6.592;2023-04-03T08:34:08;5.80;1.00
20483;DHT22;10400;53.198;6.592;2023-04-03T08:36:33;5.70;99.90
20483;DHT22;10400;53.198;6.592;2023-04-03T08:38:59;5.80;22.00
20483;DHT22;10400;53.198;6.592;2023-04-03T08:41:37;5.90;99.90
20483;DHT22;10400;53.198;6.592;2023-04-03T08:47:01;6.00;1.00
20483;DHT22;10400;53.198;6.592;2023-04-03T08:52:47;6.30;1.00
20483;DHT22;10400;53.198;6.592;2023-04-03T08:55:28;6.30;1.00
20483;DHT22;10400;53.198;6.592;2023-04-03T08:58:09;6.40;1.00
20483;DHT22;10400;53.198;6.592;2023-04-03T09:00:50;6.40;99.90
20483;DHT22;10400;53.198;6.592;2023-04-03T09:03:18;6.50;1.00
20483;DHT22;10400;53.198;6.592;2023-04-03T09:08:33;6.70;99.90
20483;DHT22;10400;53.198;6.592;2023-04-03T09:14:02;6.70;1.00
20483;DHT22;10400;53.198;6.592;2023-04-03T09:22:25;7.00;1.00
20483;DHT22;10400;53.198;6.592;2023-04-03T09:27:44;7.10;99.90
20483;DHT22;10400;53.198;6.592;2023-04-03T09:30:23;7.30;99.90
20483;DHT22;10400;53.198;6.592;2023-04-03T09:32:51;7.30;1.00
20483;DHT22;10400;53.198;6.592;2023-04-03T09:35:30;7.30;1.00
20483;DHT22;10400;53.198;6.592;2023-04-03T09:40:37;7.40;1.00
20483;DHT22;10400;53.198;6.592;2023-04-03T09:43:31;7.60;99.90
20483;DHT22;10400;53.198;6.592;2023-04-03T09:46:16;7.60;99.90
20483;DHT22;10400;53.198;6.592;2023-04-03T09:49:00;7.60;1.00
20483;DHT22;10400;53.198;6.592;2023-04-03T09:51:28;7.70;99.90
20483;DHT22;10400;53.198;6.592;2023-04-03T09:53:54;7.70;1.00
20483;DHT22;10400;53.198;6.592;2023-04-03T09:56:22;7.90;99.90
20483;DHT22;10400;53.198;6.592;2023-04-03T09:58:51;8.00;72.70
20483;DHT22;10400;53.198;6.592;2023-04-03T10:01:34;8.10;99.90
20483;DHT22;10400;53.198;6.592;2023-04-03T10:06:35;8.30;19.70
20483;DHT22;10400;53.198;6.592;2023-04-03T10:09:28;8.40;18.90
20483;DHT22;10400;53.198;6.592;2023-04-03T10:12:10;8.30;87.30
20483;DHT22;10400;53.198;6.592;2023-04-03T10:15:00;8.30;1.00
20483;DHT22;10400;53.198;6.592;2023-04-03T10:17:36;8.40;1.00
20483;DHT22;10400;53.198;6.592;2023-04-03T10:20:35;8.30;1.00
20483;DHT22;10400;53.198;6.592;2023-04-03T10:23:22;8.40;1.00
20483;DHT22;10400;53.198;6.592;2023-04-03T10:26:44;8.50;1.00
20483;DHT22;10400;53.198;6.592;2023-04-03T10:32:22;8.50;1.00
20483;DHT22;10400;53.198;6.592;2023-04-03T10:43:44;8.70;1.00
20483;DHT22;10400;53.198;6.592;2023-04-03T10:46:31;8.70;99.90
20483;DHT22;10400;53.198;6.592;2023-04-03T10:51:46;8.90;99.90
20483;DHT22;10400;53.198;6.592;2023-04-03T10:54:25;8.90;99.90
20483;DHT22;10400;53.198;6.592;2023-04-03T10:56:57;9.10;99.90
20483;DHT22;10400;53.198;6.592;2023-04-03T11:02:31;9.20;1.00
20483;DHT22;10400;53.198;6.592;2023-04-03T11:05:06;9.20;1.00
20483;DHT22;10400;53.198;6.592;2023-04-03T11:07:40;9.30;99.90
20483;DHT22;10400;53.198;6.592;2023-04-03T11:12:54;9.30;99.90
20483;DHT22;10400;53.198;6.592;2023-04-03T11:15:24;9.20;99.90
20483;DHT22;10400;53.198;6.592;2023-04-03T11:18:02;9.30;99.90
20483;DHT22;10400;53.198;6.592;2023-04-03T11:20:33;9.20;99.90
20483;DHT22;10400;53.198;6.592;2023-04-03T11:25:52;9.00;99.90
20483;DHT22;10400;53.198;6.592;2023-04-03T11:28:19;9.10;99.90
20483;DHT22;10400;53.198;6.592;2023-04-03T11:34:08;9.10;99.90
20483;DHT22;10400;53.198;6.592;2023-04-03T11:36:55;9.40;99.90
20483;DHT22;10400;53.198;6.592;2023-04-03T11:39:35;9.50;99.90
20483;DHT22;10400;53.198;6.592;2023-04-03T11:42:37;9.40;99.90
20483;DHT22;10400;53.198;6.592;2023-04-03T11:47:54;9.50;99.90
20483;DHT22;10400;53.198;6.592;2023-04-03T12:00:47;9.50;99.90
20483;DHT22;10400;53.198;6.592;2023-04-03T12:19:27;10.00;99.90
20483;DHT22;10400;53.198;6.592;2023-04-03T12:26:51;10.20;99.90
20483;DHT22;10400;53.198;6.592;2023-04-03T12:48:31;9.90;99.90
20483;DHT22;10400;53.198;6.592;2023-04-03T12:50:59;9.80;99.90
20483;DHT22;10400;53.198;6.592;2023-04-03T12:53:28;9.90;99.90
20483;DHT22;10400;53.198;6.592;2023-04-03T12:56:25;10.00;99.90
20483;DHT22;10400;53.198;6.592;2023-04-03T12:58:54;10.20;99.90
20483;DHT22;10400;53.198;6.592;2023-04-03T13:01:26;10.30;99.90
20483;DHT22;10400;53.198;6.592;2023-04-03T13:03:54;10.20;99.90
20483;DHT22;10400;53.198;6.592;2023-04-03T13:06:39;10.00;99.90
20483;DHT22;10400;53.198;6.592;2023-04-03T13:09:14;10.00;99.90
20483;DHT22;10400;53.198;6.592;2023-04-03T13:11:46;9.90;99.90
20483;DHT22;10400;53.198;6.592;2023-04-03T13:14:18;10.00;99.90
20483;DHT22;10400;53.198;6.592;2023-04-03T13:17:13;10.10;99.90
20483;DHT22;10400;53.198;6.592;2023-04-03T13:19:41;10.20;99.90
20483;DHT22;10400;53.198;6.592;2023-04-03T13:22:34;10.20;99.90
20483;DHT22;10400;53.198;6.592;2023-04-03T13:25:07;10.20;99.90
20483;DHT22;10400;53.198;6.592;2023-04-03T13:27:34;10.10;99.90
20483;DHT22;10400;53.198;6.592;2023-04-03T13:30:02;10.20;99.90
20483;DHT22;10400;53.198;6.592;2023-04-03T13:32:31;10.20;99.90
20483;DHT22;10400;53.198;6.592;2023-04-03T13:34:57;10.20;99.90
20483;DHT22;10400;53.198;6.592;2023-04-03T13:37:32;10.20;99.90
20483;DHT22;10400;53.198;6.592;2023-04-03T13:42:29;10.60;99.90
20483;DHT22;10400;53.198;6.592;2023-04-03T13:45:18;10.60;99.90
20483;DHT22;10400;53.198;6.592;2023-04-03T13:47:46;10.50;99.90
20483;DHT22;10400;53.198;6.592;2023-04-03T13:50:20;10.40;99.90
20483;DHT22;10400;53.198;6.592;2023-04-03T13:52:59;10.40;99.90
20483;DHT22;10400;53.198;6.592;2023-04-03T13:55:29;10.30;99.90
20483;DHT22;10400;53.198;6.592;2023-04-03T14:02:58;10.50;99.90
20483;DHT22;10400;53.198;6.592;2023-04-03T14:05:24;10.30;99.90
20483;DHT22;10400;53.198;6.592;2023-04-03T14:07:54;10.30;99.90
20483;DHT22;10400;53.198;6.592;2023-04-03T14:10:20;10.30;99.90
20483;DHT22;10400;53.198;6.592;2023-04-03T14:12:46;10.50;99.90
20483;DHT22;10400;53.198;6.592;2023-04-03T14:15:38;10.30;99.90
20483;DHT22;10400;53.198;6.592;2023-04-03T14:18:03;10.30;1.00
20483;DHT22;10400;53.198;6.592;2023-04-03T14:20:29;10.00;1.00
20483;DHT22;10400;53.198;6.592;2023-04-03T14:22:55;10.00;1.00
20483;DHT22;10400;53.198;6.592;2023-04-03T14:25:23;10.10;1.00
20483;DHT22;10400;53.198;6.592;2023-04-03T14:27:52;10.20;1.00
20483;DHT22;10400;53.198;6.592;2023-04-03T14:30:32;10.00;1.00
20483;DHT22;10400;53.198;6.592;2023-04-03T14:32:58;10.10;99.90
20483;DHT22;10400;53.198;6.592;2023-04-03T14:35:25;10.10;1.00
20483;DHT22;10400;53.198;6.592;2023-04-03T14:37:51;10.00;1.00
20483;DHT22;10400;53.198;6.592;2023-04-03T14:40:20;10.10;99.90
20483;DHT22;10400;53.198;6.592;2023-04-03T14:42:47;10.20;1.00
20483;DHT22;10400;53.198;6.592;2023-04-03T14:45:14;10.20;99.90
20483;DHT22;10400;53.198;6.592;2023-04-03T14:47:47;10.00;99.90
20483;DHT22;10400;53.198;6.592;2023-04-03T14:50:20;10.10;1.00
20483;DHT22;10400;53.198;6.592;2023-04-03T14:52:50;10.20;99.90
20483;DHT22;10400;53.198;6.592;2023-04-03T14:55:18;10.20;99.90
20483;DHT22;10400;53.198;6.592;2023-04-03T14:57:44;10.30;99.90
20483;DHT22;10400;53.198;6.592;2023-04-03T15:00:15;10.30;99.90
20483;DHT22;10400;53.198;6.592;2023-04-03T15:02:41;10.40;99.90
20483;DHT22;10400;53.198;6.592;2023-04-03T15:05:09;10.40;99.90
20483;DHT22;10400;53.198;6.592;2023-04-03T15:07:38;10.60;99.90
20483;DHT22;10400;53.198;6.592;2023-04-03T15:10:24;10.80;99.90
20483;DHT22;10400;53.198;6.592;2023-04-03T15:12:51;10.80;99.90
20483;DHT22;10400;53.198;6.592;2023-04-03T15:15:18;10.70;99.90
20483;DHT22;10400;53.198;6.592;2023-04-03T15:17:46;10.60;99.90
20483;DHT22;10400;53.198;6.592;2023-04-03T15:20:16;10.70;99.90
20483;DHT22;10400;53.198;6.592;2023-04-03T15:22:42;10.60;99.90
20483;DHT22;10400;53.198;6.592;2023-04-03T15:25:08;10.70;99.90
20483;DHT22;10400;53.198;6.592;2023-04-03T15:27:34;10.70;99.90
20483;DHT22;10400;53.198;6.592;2023-04-03T15:30:00;10.50;99.90
20483;DHT22;10400;53.198;6.592;2023-04-03T15:32:26;10.50;99.90
20483;DHT22;10400;53.198;6.592;2023-04-03T15:34:53;10.60;99.90
20483;DHT22;10400;53.198;6.592;2023-04-03T15:37:19;10.60;99.90
20483;DHT22;10400;53.198;6.592;2023-04-03T15:39:45;10.70;99.90
20483;DHT22;10400;53.198;6.592;2023-04-03T15:42:11;10.70;99.90
20483;DHT22;10400;53.198;6.592;2023-04-03T15:44:38;10.90;99.90
20483;DHT22;10400;53.198;6.592;2023-04-03T15:47:03;10.80;99.90
20483;DHT22;10400;53.198;6.592;2023-04-03T15:49:30;10.70;99.90
20483;DHT22;10400;53.198;6.592;2023-04-03T15:51:58;10.60;99.90
20483;DHT22;10400;53.198;6.592;2023-04-03T15:54:24;10.50;99.90
20483;DHT22;10400;53.198;6.592;2023-04-03T15:56:51;10.30;99.90
20483;DHT22;10400;53.198;6.592;2023-04-03T15:59:16;10.20;99.90
20483;DHT22;10400;53.198;6.592;2023-04-03T16:01:45;10.30;99.90
20483;DHT22;10400;53.198;6.592;2023-04-03T16:04:11;10.20;99.90
20483;DHT22;10400;53.198;6.592;2023-04-03T16:06:37;10.10;99.90
20483;DHT22;10400;53.198;6.592;2023-04-03T16:09:04;10.10;99.90
20483;DHT22;10400;53.198;6.592;2023-04-03T16:11:29;10.00;99.90
20483;DHT22;10400;53.198;6.592;2023-04-03T16:13:56;9.80;99.90
20483;DHT22;10400;53.198;6.592;2023-04-03T16:16:22;9.80;99.90
20483;DHT22;10400;53.198;6.592;2023-04-03T16:18:49;9.90;99.90
20483;DHT22;10400;53.198;6.592;2023-04-03T16:21:16;10.00;99.90
20483;DHT22;10400;53.198;6.592;2023-04-03T16:23:43;10.10;99.90
20483;DHT22;10400;53.198;6.592;2023-04-03T16:26:08;10.00;99.90
20483;DHT22;10400;53.198;6.592;2023-04-03T16:28:34;9.90;99.90
20483;DHT22;10400;53.198;6.592;2023-04-03T16:31:01;9.80;99.90
20483;DHT22;10400;53.198;6.592;2023-04-03T16:33:27;9.50;99.90
20483;DHT22;10400;53.198;6.592;2023-04-03T16:35:53;9.50;1.00
20483;DHT22;10400;53.198;6.592;2023-04-03T16:38:19;9.50;99.90
20483;DHT22;10400;53.198;6.592;2023-04-03T16:40:46;9.50;99.90
20483;DHT22;10400;53.198;6.592;2023-04-03T16:43:11;9.70;1.00
20483;DHT22;10400;53.198;6.592;2023-04-03T16:45:37;9.80;99.90
20483;DHT22;10400;53.198;6.592;2023-04-03T16:48:03;10.10;99.90
20483;DHT22;10400;53.198;6.592;2023-04-03T16:50:29;10.40;1.00
20483;DHT22;10400;53.198;6.592;2023-04-03T16:52:55;10.40;1.00
20483;DHT22;10400;53.198;6.592;2023-04-03T16:55:20;10.40;99.90
20483;DHT22;10400;53.198;6.592;2023-04-03T16:57:46;10.20;1.00
20483;DHT22;10400;53.198;6.592;2023-04-03T17:00:13;10.60;1.00
20483;DHT22;10400;53.198;6.592;2023-04-03T17:02:39;10.60;1.00
20483;DHT22;10400;53.198;6.592;2023-04-03T17:05:06;10.30;1.00
20483;DHT22;10400;53.198;6.592;2023-04-03T17:07:32;10.00;1.00
20483;DHT22;10400;53.198;6.592;2023-04-03T17:09:58;9.60;1.00
20483;DHT22;10400;53.198;6.592;2023-04-03T17:12:23;9.40;1.00
20483;DHT22;10400;53.198;6.592;2023-04-03T17:14:49;9.20;1.00
20483;DHT22;10400;53.198;6.592;2023-04-03T17:17:15;8.90;1.00
20483;DHT22;10400;53.198;6.592;2023-04-03T17:19:44;8.80;99.90
20483;DHT22;10400;53.198;6.592;2023-04-03T17:22:10;8.50;1.00
20483;DHT22;10400;53.198;6.592;2023-04-03T17:24:36;8.60;1.00
20483;DHT22;10400;53.198;6.592;2023-04-03T17:27:02;8.60;1.00
20483;DHT22;10400;53.198;6.592;2023-04-03T17:29:27;8.50;1.00
20483;DHT22;10400;53.198;6.592;2023-04-03T17:31:53;8.40;1.00
20483;DHT22;10400;53.198;6.592;2023-04-03T17:34:19;8.30;1.00
20483;DHT22;10400;53.198;6.592;2023-04-03T17:36:45;8.30;1.00
20483;DHT22;10400;53.198;6.592;2023-04-03T17:39:10;8.10;1.00
20483;DHT22;10400;53.198;6.592;2023-04-03T17:41:36;8.10;1.00
20483;DHT22;10400;53.198;6.592;2023-04-03T17:44:02;8.00;1.00
20483;DHT22;10400;53.198;6.592;2023-04-03T17:46:28;7.80;1.00
20483;DHT22;10400;53.198;6.592;2023-04-03T17:48:55;7.80;1.00
20483;DHT22;10400;53.198;6.592;2023-04-03T17:51:22;7.80;1.00
20483;DHT22;10400;53.198;6.592;2023-04-03T17:53:48;7.60;1.00